createdAt,value
2018-12-01T00:00:16.976Z,26.43
2018-12-01T00:02:44.691Z,25.97
2018-12-01T00:05:12.439Z,20.50
2018-12-01T00:07:40.093Z,21.63
2018-12-01T00:10:07.795Z,21.73
2018-12-01T00:12:35.509Z,24.30
2018-12-01T00:15:03.532Z,25.20
2018-12-01T00:17:31.235Z,22.83
2018-12-01T00:19:58.962Z,23.27
2018-12-01T00:22:26.598Z,23.10
2018-12-01T00:24:54.236Z,25.10
2018-12-01T00:27:21.969Z,24.47
2018-12-01T00:29:49.675Z,24.27
2018-12-01T00:32:17.344Z,22.17
2018-12-01T00:34:45.122Z,22.77
2018-12-01T00:37:12.807Z,21.00
2018-12-01T00:39:40.527Z,24.13
2018-12-01T00:42:08.227Z,24.27
2018-12-01T00:44:35.929Z,23.07
2018-12-01T00:47:03.636Z,20.40
2018-12-01T00:49:31.408Z,23.27
2018-12-01T00:51:59.168Z,24.20
2018-12-01T00:54:26.864Z,21.87
2018-12-01T00:56:54.555Z,19.90
2018-12-01T00:59:22.311Z,21.67
2018-12-01T01:01:50.025Z,25.27
2018-12-01T01:04:17.719Z,21.53
2018-12-01T01:06:45.563Z,21.17
2018-12-01T01:09:13.220Z,22.33
2018-12-01T01:11:40.987Z,24.30
2018-12-01T01:14:09.311Z,23.00
2018-12-01T01:16:37.064Z,23.17
2018-12-01T01:19:05.083Z,21.80
2018-12-01T01:21:32.740Z,19.87
2018-12-01T01:24:00.461Z,19.93
2018-12-01T01:26:28.168Z,19.83
2018-12-01T01:28:55.955Z,19.03
2018-12-01T01:31:23.639Z,22.50
2018-12-01T01:33:51.318Z,19.03
2018-12-01T01:36:18.984Z,20.33
2018-12-01T01:38:46.747Z,19.10
2018-12-01T01:41:14.385Z,20.93
2018-12-01T01:43:42.120Z,17.57
2018-12-01T01:46:09.863Z,15.80
2018-12-01T01:48:37.667Z,17.27
2018-12-01T01:51:05.601Z,18.20
2018-12-01T01:53:33.314Z,17.90
2018-12-01T01:56:01.093Z,18.53
2018-12-01T01:58:32.640Z,12.53
2018-12-01T02:01:00.413Z,15.33
2018-12-01T02:03:28.131Z,14.90
2018-12-01T02:05:55.844Z,14.00
2018-12-01T02:08:23.544Z,14.07
2018-12-01T02:10:51.269Z,14.20
2018-12-01T02:13:18.947Z,12.73
2018-12-01T02:15:46.659Z,15.83
2018-12-01T02:18:14.475Z,15.00
2018-12-01T02:20:42.227Z,14.30
2018-12-01T02:23:09.908Z,15.77
2018-12-01T02:25:37.627Z,14.40
2018-12-01T02:28:05.608Z,16.13
2018-12-01T02:30:33.375Z,16.23
2018-12-01T02:33:01.173Z,16.07
2018-12-01T02:35:29.539Z,15.93
2018-12-01T02:37:57.325Z,15.37
2018-12-01T02:40:27.035Z,18.17
2018-12-01T02:42:55.016Z,17.50
2018-12-01T02:45:40.132Z,16.87
2018-12-01T02:48:07.831Z,16.33
2018-12-01T02:50:35.615Z,15.77
2018-12-01T02:53:03.395Z,14.63
2018-12-01T02:55:31.138Z,15.83
2018-12-01T02:57:58.791Z,12.60
2018-12-01T03:00:26.491Z,15.43
2018-12-01T03:02:54.207Z,13.80
2018-12-01T03:05:22.599Z,14.10
2018-12-01T03:07:51.063Z,14.40
2018-12-01T03:10:19.912Z,15.17
2018-12-01T03:12:47.803Z,14.47
2018-12-01T03:15:16.676Z,14.10
2018-12-01T03:17:44.627Z,14.63
2018-12-01T03:20:14.421Z,16.60
2018-12-01T03:22:42.211Z,16.07
2018-12-01T03:25:16.178Z,15.00
2018-12-01T03:27:43.947Z,15.57
2018-12-01T03:30:11.713Z,15.93
2018-12-01T03:32:39.420Z,16.63
2018-12-01T03:35:11.395Z,15.20
2018-12-01T03:37:41.855Z,17.20
2018-12-01T03:40:10.304Z,14.27
2018-12-01T03:42:38.079Z,16.53
2018-12-01T03:45:08.336Z,15.37
2018-12-01T03:47:36.069Z,13.40
2018-12-01T03:50:05.331Z,14.40
2018-12-01T03:52:33.003Z,11.53
2018-12-01T03:55:00.695Z,14.23
2018-12-01T03:57:28.400Z,11.93
2018-12-01T03:59:56.061Z,10.03
2018-12-01T04:02:23.803Z,13.30
2018-12-01T04:04:51.488Z,13.37
2018-12-01T04:07:19.155Z,11.73
2018-12-01T04:09:46.828Z,14.90
2018-12-01T04:12:14.596Z,11.77
2018-12-01T04:14:42.317Z,14.13
2018-12-01T04:17:10.063Z,14.03
2018-12-01T04:19:37.769Z,14.83
2018-12-01T04:22:05.766Z,14.47
2018-12-01T04:24:33.559Z,16.17
2018-12-01T04:27:04.649Z,15.23
2018-12-01T04:29:32.395Z,15.97
2018-12-01T04:32:00.079Z,14.87
2018-12-01T04:34:27.799Z,15.33
2018-12-01T04:36:55.515Z,15.93
2018-12-01T04:39:23.283Z,16.37
2018-12-01T04:41:50.935Z,18.00
2018-12-01T04:44:18.655Z,20.90
2018-12-01T04:46:46.372Z,19.50
2018-12-01T04:49:14.015Z,19.00
2018-12-01T04:51:41.811Z,18.40
2018-12-01T04:54:09.538Z,21.50
2018-12-01T04:56:37.247Z,20.00
2018-12-01T04:59:05.047Z,16.77
2018-12-01T05:01:32.691Z,18.53
2018-12-01T05:04:00.347Z,20.53
2018-12-01T05:06:28.043Z,18.77
2018-12-01T05:08:55.751Z,16.77
2018-12-01T05:11:23.442Z,18.13
2018-12-01T05:13:51.155Z,19.00
2018-12-01T05:16:18.932Z,20.10
2018-12-01T05:18:46.691Z,19.33
2018-12-01T05:21:14.354Z,17.67
2018-12-01T05:23:42.060Z,21.20
2018-12-01T05:26:09.771Z,19.97
2018-12-01T05:28:37.495Z,20.70
2018-12-01T05:31:05.163Z,20.10
2018-12-01T05:33:32.879Z,21.60
2018-12-01T05:36:00.591Z,19.57
2018-12-01T05:38:28.295Z,19.77
2018-12-01T05:40:55.979Z,19.83
2018-12-01T05:43:23.671Z,19.80
2018-12-01T05:45:51.381Z,19.13
2018-12-01T05:48:19.015Z,20.63
2018-12-01T05:50:46.659Z,19.30
2018-12-01T05:53:14.407Z,18.00
2018-12-01T05:55:42.100Z,17.17
2018-12-01T05:58:09.734Z,19.53
2018-12-01T06:00:37.471Z,17.00
2018-12-01T06:03:06.267Z,16.93
2018-12-01T06:05:33.995Z,19.73
2018-12-01T06:08:01.701Z,22.30
2018-12-01T06:10:29.323Z,21.60
2018-12-01T06:13:02.226Z,22.30
2018-12-01T06:15:30.109Z,22.20
2018-12-01T06:17:57.850Z,21.83
2018-12-01T06:20:25.595Z,20.00
2018-12-01T06:22:53.367Z,20.80
2018-12-01T06:25:22.716Z,22.17
2018-12-01T06:27:50.447Z,21.57
2018-12-01T06:30:19.191Z,20.67
2018-12-01T06:32:48.408Z,20.73
2018-12-01T06:35:16.091Z,22.37
2018-12-01T06:37:43.841Z,20.40
2018-12-01T06:40:13.423Z,20.53
2018-12-01T06:42:41.091Z,23.07
2018-12-01T06:45:11.584Z,23.97
2018-12-01T06:47:39.359Z,23.13
2018-12-01T06:50:10.323Z,23.53
2018-12-01T06:52:38.090Z,20.77
2018-12-01T06:55:07.874Z,21.93
2018-12-01T06:57:35.507Z,20.63
2018-12-01T07:00:05.707Z,24.33
2018-12-01T07:02:33.395Z,26.50
2018-12-01T07:05:01.104Z,20.53
2018-12-01T07:07:28.799Z,20.03
2018-12-01T07:09:56.492Z,20.97
2018-12-01T07:12:24.147Z,21.00
2018-12-01T07:14:51.915Z,22.43
2018-12-01T07:17:19.583Z,21.43
2018-12-01T07:19:47.271Z,22.10
2018-12-01T07:22:14.971Z,20.67
2018-12-01T07:24:42.663Z,22.57
2018-12-01T07:27:10.404Z,21.37
2018-12-01T07:29:38.126Z,22.03
2018-12-01T07:32:05.795Z,20.03
2018-12-01T07:34:33.468Z,20.97
2018-12-01T07:37:01.176Z,24.33
2018-12-01T07:39:28.883Z,19.77
2018-12-01T07:41:56.548Z,21.27
2018-12-01T07:44:24.231Z,23.20
2018-12-01T07:46:51.967Z,22.17
2018-12-01T07:49:19.731Z,21.93
2018-12-01T07:51:47.423Z,21.80
2018-12-01T07:54:15.130Z,23.70
2018-12-01T07:56:42.855Z,19.67
2018-12-01T07:59:14.404Z,24.20
2018-12-01T08:01:42.150Z,23.57
2018-12-01T08:04:09.840Z,21.50
2018-12-01T08:06:37.571Z,20.03
2018-12-01T08:09:07.163Z,20.87
2018-12-01T08:11:34.859Z,20.50
2018-12-01T08:14:02.631Z,22.57
2018-12-01T08:16:30.643Z,22.37
2018-12-01T08:18:58.391Z,23.33
2018-12-01T08:21:26.123Z,21.67
2018-12-01T08:23:53.835Z,22.07
2018-12-01T08:26:21.654Z,19.97
2018-12-01T08:28:49.375Z,20.33
2018-12-01T08:31:17.043Z,20.77
2018-12-01T08:33:44.723Z,18.47
2018-12-01T08:36:12.460Z,20.90
2018-12-01T08:38:40.215Z,20.30
2018-12-01T08:41:07.931Z,18.67
2018-12-01T08:43:35.639Z,19.87
2018-12-01T08:46:03.322Z,22.63
2018-12-01T08:48:31.039Z,22.60
2018-12-01T08:50:58.755Z,22.83
2018-12-01T08:53:26.421Z,21.13
2018-12-01T08:55:54.301Z,20.00
2018-12-01T08:58:22.041Z,18.30
2018-12-01T09:00:49.819Z,20.07
2018-12-01T09:03:22.157Z,19.77
2018-12-01T09:05:50.487Z,17.23
2018-12-01T09:08:18.159Z,17.67
2018-12-01T09:10:45.908Z,19.23
2018-12-01T09:13:13.603Z,16.60
2018-12-01T09:15:41.380Z,18.53
2018-12-01T09:18:09.099Z,17.67
2018-12-01T09:20:36.808Z,19.13
2018-12-01T09:23:05.010Z,17.57
2018-12-01T09:25:37.060Z,16.93
2018-12-01T09:28:06.611Z,17.60
2018-12-01T09:30:35.904Z,15.77
2018-12-01T09:33:04.220Z,15.77
2018-12-01T09:35:31.883Z,15.10
2018-12-01T09:37:59.583Z,16.70
2018-12-01T09:40:27.343Z,14.67
2018-12-01T09:42:55.083Z,14.17
2018-12-01T09:45:24.285Z,14.50
2018-12-01T09:47:55.171Z,13.77
2018-12-01T09:50:22.895Z,13.83
2018-12-01T09:52:52.427Z,12.83
2018-12-01T09:55:22.734Z,11.77
2018-12-01T09:57:50.527Z,9.97
2018-12-01T10:00:20.537Z,11.73
2018-12-01T10:02:48.315Z,11.40
2018-12-01T10:05:17.644Z,11.60
2018-12-01T10:07:45.479Z,11.47
2018-12-01T10:10:15.831Z,12.33
2018-12-01T10:12:45.415Z,11.97
2018-12-01T10:15:16.721Z,12.47
2018-12-01T10:17:44.433Z,11.77
2018-12-01T10:20:15.272Z,14.77
2018-12-01T10:22:42.958Z,13.07
2018-12-01T10:25:13.292Z,11.53
2018-12-01T10:27:40.995Z,13.57
2018-12-01T10:30:16.376Z,11.10
2018-12-01T10:32:44.171Z,10.97
2018-12-01T10:35:16.455Z,10.10
2018-12-01T10:37:49.446Z,9.17
2018-12-01T10:40:17.136Z,10.20
2018-12-01T10:42:44.816Z,9.97
2018-12-01T10:45:15.943Z,9.97
2018-12-01T10:47:44.514Z,9.90
2018-12-01T10:50:16.854Z,9.63
2018-12-01T10:52:46.579Z,8.23
2018-12-01T10:55:29.722Z,8.47
2018-12-01T10:58:02.422Z,8.80
2018-12-01T11:00:36.436Z,7.93
2018-12-01T11:03:05.771Z,8.20
2018-12-01T11:05:35.205Z,7.73
2018-12-01T11:08:05.023Z,9.07
2018-12-01T11:10:32.759Z,8.47
2018-12-01T11:13:00.384Z,9.27
2018-12-01T11:15:28.161Z,9.57
2018-12-01T11:17:55.898Z,9.87
2018-12-01T11:20:23.583Z,9.30
2018-12-01T11:22:51.396Z,9.70
2018-12-01T11:25:19.197Z,9.00
2018-12-01T11:27:47.004Z,9.37
2018-12-01T11:30:16.368Z,9.30
2018-12-01T11:32:44.354Z,9.53
2018-12-01T11:35:12.124Z,9.23
2018-12-01T11:37:39.891Z,8.23
2018-12-01T11:40:12.224Z,8.57
2018-12-01T11:42:39.964Z,8.90
2018-12-01T11:45:10.651Z,8.20
2018-12-01T11:47:38.371Z,8.27
2018-12-01T11:50:14.599Z,7.40
2018-12-01T11:52:42.464Z,7.50
2018-12-01T11:55:12.915Z,7.33
2018-12-01T11:57:40.651Z,8.17
2018-12-01T12:00:15.362Z,7.77
2018-12-01T12:02:43.339Z,8.10
2018-12-01T12:05:12.619Z,7.80
2018-12-01T12:08:43.580Z,6.13
2018-12-01T12:11:11.321Z,6.80
2018-12-01T12:13:39.059Z,6.53
2018-12-01T12:16:06.759Z,6.30
2018-12-01T12:18:34.504Z,6.83
2018-12-01T12:21:02.292Z,6.83
2018-12-01T12:23:29.992Z,6.57
2018-12-01T12:25:57.754Z,7.20
2018-12-01T12:28:25.503Z,6.77
2018-12-01T12:30:53.279Z,6.40
2018-12-01T12:33:21.028Z,7.17
2018-12-01T12:35:48.767Z,6.77
2018-12-01T12:38:16.455Z,7.13
2018-12-01T12:40:44.198Z,7.20
2018-12-01T12:43:11.815Z,6.83
2018-12-01T12:45:39.559Z,7.70
2018-12-01T12:48:08.314Z,7.07
2018-12-01T12:50:36.019Z,8.60
2018-12-01T12:53:03.829Z,8.60
2018-12-01T12:55:31.619Z,8.30
2018-12-01T12:57:59.353Z,8.73
2018-12-01T13:00:28.091Z,8.73
2018-12-01T13:03:01.472Z,7.97
2018-12-01T13:05:33.213Z,6.73
2018-12-01T13:08:00.906Z,8.37
2018-12-01T13:10:28.710Z,8.03
2018-12-01T13:12:56.386Z,7.77
2018-12-01T13:15:24.155Z,7.77
2018-12-01T13:17:51.856Z,7.10
2018-12-01T13:20:21.162Z,6.97
2018-12-01T13:22:52.915Z,7.70
2018-12-01T13:25:20.639Z,8.23
2018-12-01T13:27:51.104Z,8.90
2018-12-01T13:30:22.118Z,8.20
2018-12-01T13:32:49.919Z,8.40
2018-12-01T13:35:17.787Z,6.30
2018-12-01T13:37:45.731Z,7.27
2018-12-01T13:40:14.939Z,8.43
2018-12-01T13:42:43.728Z,6.87
2018-12-01T13:45:13.114Z,7.80
2018-12-01T13:47:41.053Z,7.43
2018-12-01T13:50:13.482Z,6.20
2018-12-01T13:52:42.384Z,7.00
2018-12-01T13:55:10.392Z,7.17
2018-12-01T13:57:38.099Z,7.57
2018-12-01T14:00:12.055Z,7.37
2018-12-01T14:02:39.907Z,7.83
2018-12-01T14:05:09.677Z,9.30
2018-12-01T14:07:37.391Z,8.63
2018-12-01T14:10:11.543Z,7.20
2018-12-01T14:12:39.625Z,8.03
2018-12-01T14:15:12.682Z,7.40
2018-12-01T14:17:40.595Z,6.97
2018-12-01T14:20:10.495Z,7.73
2018-12-01T14:22:38.228Z,7.00
2018-12-01T14:25:08.861Z,7.03
2018-12-01T14:27:37.030Z,6.50
2018-12-01T14:30:09.109Z,6.07
2018-12-01T14:32:37.047Z,7.50
2018-12-01T14:35:13.622Z,6.97
2018-12-01T14:37:41.835Z,7.13
2018-12-01T14:40:11.409Z,6.87
2018-12-01T14:42:39.440Z,7.00
2018-12-01T14:45:10.217Z,6.37
2018-12-01T14:47:42.632Z,6.43
2018-12-01T14:50:11.803Z,5.07
2018-12-01T14:52:40.135Z,6.07
2018-12-01T14:55:11.555Z,6.13
2018-12-01T14:57:39.227Z,6.23
2018-12-01T15:00:23.520Z,5.90
2018-12-01T15:02:52.623Z,5.67
2018-12-01T15:05:20.350Z,6.17
2018-12-01T15:07:48.931Z,5.83
2018-12-01T15:10:21.120Z,6.20
2018-12-01T15:12:48.921Z,6.17
2018-12-01T15:15:20.415Z,6.87
2018-12-01T15:17:48.224Z,7.47
2018-12-01T15:20:17.395Z,6.83
2018-12-01T15:22:46.903Z,6.37
2018-12-01T15:25:20.279Z,6.13
2018-12-01T15:27:48.028Z,7.23
2018-12-01T15:30:19.276Z,6.33
2018-12-01T15:32:50.499Z,6.37
2018-12-01T15:35:18.252Z,7.30
2018-12-01T15:37:45.950Z,6.10
2018-12-01T15:40:15.566Z,5.20
2018-12-01T15:42:43.319Z,6.80
2018-12-01T15:45:15.793Z,6.80
2018-12-01T15:47:43.552Z,5.80
2018-12-01T15:50:17.219Z,6.40
2018-12-01T15:52:47.939Z,6.97
2018-12-01T15:55:15.627Z,5.07
2018-12-01T15:57:43.314Z,5.33
2018-12-01T16:00:19.593Z,6.10
2018-12-01T16:02:47.360Z,8.17
2018-12-01T16:05:16.482Z,6.37
2018-12-01T16:07:44.471Z,7.80
2018-12-01T16:10:15.798Z,8.20
2018-12-01T16:12:49.461Z,6.30
2018-12-01T16:15:20.594Z,7.87
2018-12-01T16:17:48.355Z,8.20
2018-12-01T16:20:16.171Z,7.33
2018-12-01T16:22:43.893Z,7.67
2018-12-01T16:25:14.225Z,6.90
2018-12-01T16:27:43.359Z,6.43
2018-12-01T16:30:15.480Z,7.10
2018-12-01T16:32:43.235Z,7.53
2018-12-01T16:35:10.938Z,7.90
2018-12-01T16:37:38.664Z,6.77
2018-12-01T16:40:12.456Z,8.27
2018-12-01T16:42:40.247Z,7.60
2018-12-01T16:45:10.938Z,7.53
2018-12-01T16:47:38.715Z,6.80
2018-12-01T16:50:11.695Z,7.20
2018-12-01T16:52:40.235Z,6.47
2018-12-01T16:55:11.418Z,6.57
2018-12-01T16:57:39.142Z,7.80
2018-12-01T17:00:21.680Z,8.53
2018-12-01T17:02:59.309Z,8.97
2018-12-01T17:05:31.503Z,7.77
2018-12-01T17:07:59.213Z,8.57
2018-12-01T17:10:26.846Z,9.87
2018-12-01T17:12:56.066Z,9.07
2018-12-01T17:15:23.855Z,7.70
2018-12-01T17:17:51.535Z,7.40
2018-12-01T17:20:19.575Z,7.50
2018-12-01T17:22:54.161Z,8.83
2018-12-01T17:25:21.842Z,7.60
2018-12-01T17:27:50.948Z,7.03
2018-12-01T17:30:20.339Z,7.27
2018-12-01T17:32:48.659Z,8.23
2018-12-01T17:35:21.185Z,7.57
2018-12-01T17:37:51.524Z,6.97
2018-12-01T17:40:25.914Z,6.90
2018-12-01T17:42:55.988Z,6.67
2018-12-01T17:45:23.686Z,6.50
2018-12-01T17:47:51.447Z,6.17
2018-12-01T17:50:19.177Z,6.63
2018-12-01T17:52:50.383Z,6.13
2018-12-01T17:55:18.128Z,6.77
2018-12-01T17:57:50.645Z,7.00
2018-12-01T18:00:22.167Z,6.93
2018-12-01T18:02:51.958Z,6.40
2018-12-01T18:05:23.853Z,6.67
2018-12-01T18:07:52.063Z,6.70
2018-12-01T18:10:19.602Z,7.10
2018-12-01T18:12:47.254Z,6.30
2018-12-01T18:15:16.752Z,6.40
2018-12-01T18:17:44.546Z,7.03
2018-12-01T18:20:17.584Z,7.80
2018-12-01T18:22:55.539Z,7.83
2018-12-01T18:25:23.255Z,9.43
2018-12-01T18:27:54.428Z,6.83
2018-12-01T18:30:25.523Z,6.60
2018-12-01T18:32:54.367Z,6.30
2018-12-01T18:35:22.042Z,6.80
2018-12-01T18:37:49.779Z,6.27
2018-12-01T18:40:19.627Z,6.23
2018-12-01T18:42:47.295Z,6.43
2018-12-01T18:45:16.675Z,6.07
2018-12-01T18:47:44.453Z,6.07
2018-12-01T18:50:16.443Z,5.90
2018-12-01T18:53:16.232Z,6.77
2018-12-01T18:55:48.296Z,5.97
2018-12-01T18:58:16.056Z,6.13
2018-12-01T19:00:52.356Z,6.60
2018-12-01T19:03:22.311Z,6.37
2018-12-01T19:05:50.019Z,5.90
2018-12-01T19:08:17.747Z,5.70
2018-12-01T19:10:45.435Z,5.27
2018-12-01T19:13:13.179Z,5.83
2018-12-01T19:15:40.920Z,5.80
2018-12-01T19:18:08.811Z,4.80
2018-12-01T19:20:37.165Z,5.23
2018-12-01T19:23:10.444Z,5.03
2018-12-01T19:25:45.304Z,5.27
2018-12-01T19:28:16.611Z,4.57
2018-12-01T19:30:47.964Z,4.57
2018-12-01T19:33:22.794Z,5.10
2018-12-01T19:35:54.887Z,5.80
2018-12-01T19:38:28.056Z,5.53
2018-12-01T19:41:01.467Z,5.60
2018-12-01T19:43:32.570Z,6.97
2018-12-01T19:46:03.420Z,5.50
2018-12-01T19:48:34.244Z,6.53
2018-12-01T19:51:05.411Z,6.23
2018-12-01T19:53:37.873Z,6.10
2018-12-01T19:56:08.479Z,7.10
2018-12-01T19:58:40.158Z,5.97
2018-12-01T20:01:11.458Z,6.53
2018-12-01T20:03:43.307Z,5.83
2018-12-01T20:06:15.121Z,6.57
2018-12-01T20:08:44.420Z,6.63
2018-12-01T20:11:12.634Z,6.40
2018-12-01T20:13:46.022Z,5.87
2018-12-01T20:16:38.842Z,6.57
2018-12-01T20:19:07.674Z,5.97
2018-12-01T20:21:36.519Z,7.17
2018-12-01T20:24:07.534Z,6.67
2018-12-01T20:26:35.863Z,6.63
2018-12-01T20:29:03.891Z,7.23
2018-12-01T20:31:31.799Z,7.40
2018-12-01T20:34:01.324Z,7.27
2018-12-01T20:36:37.086Z,7.70
2018-12-01T20:39:30.535Z,7.07
2018-12-01T20:41:58.895Z,7.77
2018-12-01T20:44:27.955Z,8.30
2018-12-01T20:46:57.267Z,8.60
2018-12-01T20:49:29.122Z,7.10
2018-12-01T20:51:58.057Z,7.83
2018-12-01T20:54:37.376Z,6.90
2018-12-01T20:57:20.813Z,7.30
2018-12-01T20:59:48.663Z,6.93
2018-12-01T21:02:17.246Z,6.60
2018-12-01T21:04:44.995Z,7.60
2018-12-01T21:07:12.663Z,6.57
2018-12-01T21:09:40.796Z,6.70
2018-12-01T21:12:10.732Z,6.77
2018-12-01T21:14:39.629Z,5.77
2018-12-01T21:17:08.822Z,5.63
2018-12-01T21:19:38.165Z,5.40
2018-12-01T21:22:08.923Z,5.50
2018-12-01T21:24:37.546Z,5.40
2018-12-01T21:27:05.495Z,5.60
2018-12-01T21:29:33.474Z,5.00
2018-12-01T21:32:04.755Z,5.57
2018-12-01T21:34:32.596Z,5.17
2018-12-01T21:37:00.321Z,5.43
2018-12-01T21:39:28.783Z,5.17
2018-12-01T21:41:57.755Z,5.00
2018-12-01T21:44:25.467Z,4.20
2018-12-01T21:46:54.068Z,4.87
2018-12-01T21:49:21.803Z,5.30
2018-12-01T21:51:49.593Z,4.60
2018-12-01T21:54:17.355Z,5.47
2018-12-01T21:56:45.050Z,5.23
2018-12-01T21:59:12.799Z,4.77
2018-12-01T22:01:40.544Z,5.10
2018-12-01T22:04:09.157Z,5.10
2018-12-01T22:06:36.848Z,5.23
2018-12-01T22:09:06.953Z,4.87
2018-12-01T22:11:34.732Z,4.43
2018-12-01T22:14:02.436Z,4.20
2018-12-01T22:16:30.704Z,4.03
2018-12-01T22:18:58.519Z,4.00
2018-12-01T22:21:26.182Z,4.03
2018-12-01T22:23:54.044Z,3.80
2018-12-01T22:26:21.771Z,3.23
2018-12-01T22:28:49.614Z,3.67
2018-12-01T22:31:17.274Z,3.20
2018-12-01T22:33:44.993Z,3.23
2018-12-01T22:36:12.758Z,3.40
2018-12-01T22:38:40.471Z,2.37
2018-12-01T22:41:08.207Z,2.60
2018-12-01T22:43:35.961Z,2.50
2018-12-01T22:46:07.231Z,2.37
2018-12-01T22:48:34.979Z,2.83
2018-12-01T22:51:02.719Z,2.87
2018-12-01T22:53:30.432Z,2.43
2018-12-01T22:55:58.240Z,2.50
2018-12-01T22:58:25.954Z,2.27
2018-12-01T23:00:56.301Z,2.60
2018-12-01T23:03:25.835Z,3.23
2018-12-01T23:05:53.580Z,2.40
2018-12-01T23:08:23.141Z,2.80
2018-12-01T23:10:50.887Z,2.50
2018-12-01T23:13:18.839Z,2.37
2018-12-01T23:15:46.606Z,2.60
2018-12-01T23:18:16.617Z,2.93
2018-12-01T23:20:46.096Z,2.70
2018-12-01T23:23:16.651Z,2.40
2018-12-01T23:25:44.763Z,2.93
2018-12-01T23:28:12.548Z,2.70
2018-12-01T23:30:44.754Z,2.80
2018-12-01T23:33:16.035Z,2.67
2018-12-01T23:35:43.789Z,2.47
2018-12-01T23:38:11.532Z,2.40
2018-12-01T23:40:40.205Z,2.50
2018-12-01T23:43:08.319Z,2.50
2018-12-01T23:45:37.873Z,2.93
2018-12-01T23:48:05.886Z,3.20
2018-12-01T23:50:33.740Z,2.87
2018-12-01T23:53:06.748Z,3.37
2018-12-01T23:55:34.502Z,2.93
2018-12-01T23:58:02.339Z,2.80
